createdAt,value
2017-08-25T00:00:13.868Z,3.57
2017-08-25T00:02:41.305Z,3.40
2017-08-25T00:05:08.732Z,3.17
2017-08-25T00:07:36.160Z,2.90
2017-08-25T00:10:03.592Z,3.27
2017-08-25T00:12:31.025Z,3.60
2017-08-25T00:14:58.439Z,3.93
2017-08-25T00:17:25.893Z,3.13
2017-08-25T00:19:53.317Z,3.20
2017-08-25T00:22:20.741Z,3.30
2017-08-25T00:24:48.228Z,2.80
2017-08-25T00:27:15.661Z,2.50
2017-08-25T00:29:43.089Z,2.80
2017-08-25T00:32:10.701Z,3.33
2017-08-25T00:34:38.116Z,2.90
2017-08-25T00:37:05.548Z,2.90
2017-08-25T00:39:33.034Z,3.37
2017-08-25T00:42:00.452Z,3.33
2017-08-25T00:44:27.888Z,2.83
2017-08-25T00:46:55.308Z,2.83
2017-08-25T00:49:22.729Z,3.30
2017-08-25T00:51:50.181Z,3.37
2017-08-25T00:54:18.121Z,3.87
2017-08-25T00:56:45.620Z,3.33
2017-08-25T00:59:13.041Z,3.07
2017-08-25T01:01:40.474Z,3.33
2017-08-25T01:04:07.942Z,4.30
2017-08-25T01:06:35.372Z,3.43
2017-08-25T01:09:02.799Z,3.50
2017-08-25T01:11:30.237Z,3.30
2017-08-25T01:13:57.664Z,3.27
2017-08-25T01:16:25.116Z,3.40
2017-08-25T01:18:52.539Z,3.20
2017-08-25T01:21:19.966Z,3.60
2017-08-25T01:23:47.397Z,3.87
2017-08-25T01:26:14.815Z,3.33
2017-08-25T01:28:42.249Z,4.07
2017-08-25T01:31:09.685Z,3.23
2017-08-25T01:33:37.108Z,3.23
2017-08-25T01:36:05.014Z,4.43
2017-08-25T01:38:32.526Z,4.40
2017-08-25T01:40:59.944Z,4.57
2017-08-25T01:43:27.382Z,4.10
2017-08-25T01:45:54.799Z,3.73
2017-08-25T01:48:22.233Z,3.00
2017-08-25T01:50:49.656Z,3.97
2017-08-25T01:53:17.096Z,4.03
2017-08-25T01:55:44.516Z,3.93
2017-08-25T01:58:11.935Z,4.70
2017-08-25T02:00:39.368Z,3.73
2017-08-25T02:03:06.824Z,4.60
2017-08-25T02:05:34.251Z,4.63
2017-08-25T02:08:02.657Z,4.30
2017-08-25T02:10:30.088Z,3.33
2017-08-25T02:12:57.511Z,3.73
2017-08-25T02:15:24.956Z,4.10
2017-08-25T02:17:52.487Z,3.70
2017-08-25T02:20:19.941Z,4.53
2017-08-25T02:22:47.365Z,4.20
2017-08-25T02:25:14.857Z,3.80
2017-08-25T02:27:42.284Z,4.03
2017-08-25T02:30:09.708Z,4.23
2017-08-25T02:32:37.135Z,4.83
2017-08-25T02:35:04.565Z,3.67
2017-08-25T02:37:32.005Z,3.60
2017-08-25T02:39:59.433Z,5.50
2017-08-25T02:42:26.861Z,4.00
2017-08-25T02:44:54.298Z,3.97
2017-08-25T02:47:21.728Z,4.33
2017-08-25T02:49:49.159Z,4.97
2017-08-25T02:52:16.583Z,5.20
2017-08-25T02:54:44.020Z,4.70
2017-08-25T02:57:11.448Z,4.90
2017-08-25T02:59:38.901Z,6.07
2017-08-25T03:02:06.330Z,5.30
2017-08-25T03:04:33.768Z,6.00
2017-08-25T03:07:01.195Z,4.90
2017-08-25T03:09:28.631Z,4.47
2017-08-25T03:11:56.070Z,4.70
2017-08-25T03:14:23.508Z,4.00
2017-08-25T03:16:50.945Z,4.30
2017-08-25T03:19:18.413Z,4.57
2017-08-25T03:21:46.603Z,4.10
2017-08-25T03:24:14.051Z,4.50
2017-08-25T03:26:41.488Z,6.00
2017-08-25T03:29:08.910Z,4.40
2017-08-25T03:31:36.331Z,4.50
2017-08-25T03:34:03.766Z,3.83
2017-08-25T03:36:31.217Z,4.80
2017-08-25T03:38:58.643Z,3.50
2017-08-25T03:41:26.076Z,4.87
2017-08-25T03:43:53.517Z,4.53
2017-08-25T03:46:20.959Z,4.50
2017-08-25T03:48:48.397Z,4.80
2017-08-25T03:51:17.833Z,4.50
2017-08-25T03:53:45.269Z,5.27
2017-08-25T03:56:12.696Z,5.07
2017-08-25T03:58:40.137Z,4.80
2017-08-25T04:01:07.565Z,5.03
2017-08-25T04:03:34.996Z,4.30
2017-08-25T04:06:02.444Z,3.93
2017-08-25T04:08:29.935Z,4.53
2017-08-25T04:10:57.373Z,4.17
2017-08-25T04:13:24.812Z,4.87
2017-08-25T04:15:52.277Z,4.77
2017-08-25T04:18:19.709Z,4.40
2017-08-25T04:20:47.140Z,4.40
2017-08-25T04:23:14.574Z,5.53
2017-08-25T04:25:42.007Z,4.90
2017-08-25T04:28:09.435Z,4.60
2017-08-25T04:30:36.868Z,4.17
2017-08-25T04:33:04.306Z,4.20
2017-08-25T04:35:31.763Z,4.30
2017-08-25T04:37:59.185Z,4.70
2017-08-25T04:40:26.614Z,4.80
2017-08-25T04:42:54.048Z,4.57
2017-08-25T04:45:21.472Z,3.40
2017-08-25T04:47:49.007Z,3.97
2017-08-25T04:50:16.467Z,4.33
2017-08-25T04:52:43.888Z,4.57
2017-08-25T04:55:11.331Z,4.83
2017-08-25T04:57:38.776Z,4.80
2017-08-25T05:00:06.196Z,5.10
2017-08-25T05:02:33.636Z,5.17
2017-08-25T05:05:01.063Z,5.43
2017-08-25T05:07:28.518Z,5.27
2017-08-25T05:10:01.769Z,5.40
2017-08-25T05:12:29.188Z,5.00
2017-08-25T05:14:56.623Z,5.47
2017-08-25T05:17:24.048Z,4.70
2017-08-25T05:19:51.486Z,4.47
2017-08-25T05:22:18.912Z,5.27
2017-08-25T05:24:46.355Z,5.30
2017-08-25T05:27:13.776Z,4.87
2017-08-25T05:29:41.264Z,4.97
2017-08-25T05:32:08.688Z,5.67
2017-08-25T05:34:36.124Z,6.10
2017-08-25T05:37:03.557Z,6.30
2017-08-25T05:39:30.990Z,6.27
2017-08-25T05:41:58.431Z,5.23
2017-08-25T05:44:25.857Z,5.90
2017-08-25T05:46:53.293Z,6.10
2017-08-25T05:49:20.735Z,6.40
2017-08-25T05:51:48.168Z,6.33
2017-08-25T05:54:15.596Z,5.60
2017-08-25T05:56:43.035Z,6.80
2017-08-25T05:59:10.472Z,5.73
2017-08-25T06:01:37.923Z,7.27
2017-08-25T06:04:05.356Z,6.50
2017-08-25T06:06:32.789Z,6.83
2017-08-25T06:09:00.217Z,6.27
2017-08-25T06:11:27.645Z,6.60
2017-08-25T06:13:55.086Z,5.80
2017-08-25T06:16:22.500Z,6.90
2017-08-25T06:18:49.936Z,6.30
2017-08-25T06:21:17.373Z,7.90
2017-08-25T06:23:44.812Z,6.30
2017-08-25T06:26:12.239Z,6.70
2017-08-25T06:28:39.685Z,7.23
2017-08-25T06:31:07.116Z,7.70
2017-08-25T06:33:34.544Z,7.67
2017-08-25T06:36:01.986Z,6.80
2017-08-25T06:38:29.414Z,6.30
2017-08-25T06:40:56.853Z,7.13
2017-08-25T06:43:24.285Z,8.37
2017-08-25T06:45:51.724Z,8.27
2017-08-25T06:48:19.168Z,7.70
2017-08-25T06:50:46.590Z,7.43
2017-08-25T06:53:14.013Z,7.57
2017-08-25T06:55:41.449Z,7.50
2017-08-25T06:58:08.891Z,8.20
2017-08-25T07:00:36.323Z,7.47
2017-08-25T07:03:03.761Z,8.13
2017-08-25T07:05:31.444Z,8.33
2017-08-25T07:07:58.877Z,6.73
2017-08-25T07:10:26.307Z,7.80
2017-08-25T07:12:53.768Z,7.43
2017-08-25T07:15:21.210Z,7.23
2017-08-25T07:17:48.632Z,6.50
2017-08-25T07:20:16.060Z,6.77
2017-08-25T07:22:43.492Z,5.73
2017-08-25T07:25:10.923Z,5.83
2017-08-25T07:27:38.461Z,7.20
2017-08-25T07:30:05.883Z,5.13
2017-08-25T07:32:33.312Z,6.23
2017-08-25T07:35:00.799Z,5.57
2017-08-25T07:37:28.230Z,6.00
2017-08-25T07:39:55.655Z,6.03
2017-08-25T07:42:23.076Z,6.03
2017-08-25T07:44:50.513Z,5.00
2017-08-25T07:47:17.939Z,4.63
2017-08-25T07:49:45.376Z,5.07
2017-08-25T07:52:12.800Z,4.80
2017-08-25T07:54:40.233Z,5.03
2017-08-25T07:57:07.674Z,5.43
2017-08-25T07:59:35.095Z,5.07
2017-08-25T08:02:02.525Z,5.17
2017-08-25T08:04:29.944Z,5.10
2017-08-25T08:06:57.388Z,5.43
2017-08-25T08:09:24.925Z,4.97
2017-08-25T08:11:52.355Z,6.10
2017-08-25T08:14:19.785Z,4.37
2017-08-25T08:16:47.235Z,4.60
2017-08-25T08:19:14.654Z,3.93
2017-08-25T08:21:42.089Z,4.70
2017-08-25T08:24:09.517Z,4.03
2017-08-25T08:26:36.969Z,4.30
2017-08-25T08:29:04.401Z,4.23
2017-08-25T08:31:31.838Z,3.93
2017-08-25T08:33:59.261Z,4.33
2017-08-25T08:36:32.452Z,3.67
2017-08-25T08:38:59.893Z,4.70
2017-08-25T08:41:27.333Z,4.30
2017-08-25T08:43:54.756Z,4.50
2017-08-25T08:46:22.189Z,4.30
2017-08-25T08:48:49.612Z,3.90
2017-08-25T08:51:17.082Z,4.13
2017-08-25T08:53:44.508Z,3.30
2017-08-25T08:56:11.941Z,3.67
2017-08-25T08:58:39.377Z,3.50
2017-08-25T09:01:06.805Z,3.53
2017-08-25T09:03:34.245Z,3.20
2017-08-25T09:06:07.383Z,3.57
2017-08-25T09:08:34.822Z,4.20
2017-08-25T09:11:02.249Z,3.70
2017-08-25T09:13:29.696Z,3.80
2017-08-25T09:15:57.193Z,3.70
2017-08-25T09:18:24.635Z,3.80
2017-08-25T09:20:52.059Z,4.23
2017-08-25T09:23:19.490Z,5.23
2017-08-25T09:25:46.916Z,3.87
2017-08-25T09:28:14.405Z,3.60
2017-08-25T09:30:41.836Z,4.07
2017-08-25T09:33:09.271Z,4.37
2017-08-25T09:35:36.705Z,3.53
2017-08-25T09:38:04.155Z,3.63
2017-08-25T09:40:31.588Z,4.20
2017-08-25T09:42:59.012Z,3.00
2017-08-25T09:45:26.476Z,3.60
2017-08-25T09:47:53.912Z,3.30
2017-08-25T09:50:21.390Z,3.73
2017-08-25T09:52:48.826Z,3.40
2017-08-25T09:55:16.256Z,4.37
2017-08-25T09:57:43.688Z,3.37
2017-08-25T10:00:13.192Z,3.70
2017-08-25T10:02:40.637Z,4.10
2017-08-25T10:05:08.056Z,3.47
2017-08-25T10:07:35.488Z,3.03
2017-08-25T10:10:02.924Z,2.80
2017-08-25T10:12:30.354Z,3.60
2017-08-25T10:14:57.800Z,2.97
2017-08-25T10:17:25.253Z,3.30
2017-08-25T10:19:52.724Z,2.57
2017-08-25T10:22:20.148Z,3.47
2017-08-25T10:24:48.403Z,2.83
2017-08-25T10:27:15.828Z,3.37
2017-08-25T10:29:43.266Z,3.10
2017-08-25T10:32:10.701Z,2.70
2017-08-25T10:34:49.903Z,2.80
2017-08-25T10:37:29.104Z,2.53
2017-08-25T10:40:08.429Z,3.03
2017-08-25T10:42:47.761Z,2.30
2017-08-25T10:45:21.233Z,3.17
2017-08-25T10:47:48.656Z,2.90
2017-08-25T10:50:16.100Z,3.27
2017-08-25T10:52:43.561Z,2.70
2017-08-25T10:55:10.989Z,2.90
2017-08-25T10:57:38.431Z,2.67
2017-08-25T11:00:05.856Z,2.33
2017-08-25T11:02:33.288Z,2.60
2017-08-25T11:05:00.722Z,2.53
2017-08-25T11:07:28.158Z,3.30
2017-08-25T11:09:55.584Z,2.53
2017-08-25T11:12:23.027Z,3.83
2017-08-25T11:14:50.457Z,2.60
2017-08-25T11:17:17.894Z,3.10
2017-08-25T11:19:45.331Z,2.83
2017-08-25T11:22:12.762Z,3.00
2017-08-25T11:24:42.204Z,2.93
2017-08-25T11:27:09.641Z,3.30
2017-08-25T11:29:37.073Z,3.57
2017-08-25T11:32:04.506Z,3.00
2017-08-25T11:34:31.940Z,3.13
2017-08-25T11:36:59.369Z,2.97
2017-08-25T11:39:26.800Z,2.70
2017-08-25T11:41:54.229Z,3.00
2017-08-25T11:44:21.656Z,4.00
2017-08-25T11:46:49.099Z,2.80
2017-08-25T11:49:16.573Z,3.43
2017-08-25T11:51:44.073Z,3.13
2017-08-25T11:54:11.498Z,3.30
2017-08-25T11:56:38.944Z,3.83
2017-08-25T11:59:06.373Z,3.03
2017-08-25T12:01:33.812Z,3.60
2017-08-25T12:04:01.253Z,3.37
2017-08-25T12:06:28.693Z,3.47
2017-08-25T12:08:56.117Z,3.00
2017-08-25T12:11:23.545Z,3.30
2017-08-25T12:13:50.981Z,2.87
2017-08-25T12:16:18.414Z,3.90
2017-08-25T12:18:45.832Z,3.00
2017-08-25T12:21:13.260Z,2.93
2017-08-25T12:23:40.699Z,3.20
2017-08-25T12:26:08.120Z,3.40
2017-08-25T12:28:35.552Z,2.90
2017-08-25T12:31:02.980Z,3.20
2017-08-25T12:33:30.417Z,2.87
2017-08-25T12:35:57.843Z,3.10
2017-08-25T12:38:25.268Z,3.30
2017-08-25T12:40:52.714Z,3.50
2017-08-25T12:43:20.136Z,3.07
2017-08-25T12:45:47.575Z,3.17
2017-08-25T12:48:14.987Z,3.57
2017-08-25T12:50:44.432Z,3.60
2017-08-25T12:53:11.868Z,3.37
2017-08-25T12:55:39.305Z,3.53
2017-08-25T12:58:06.749Z,3.50
2017-08-25T13:00:34.192Z,3.60
2017-08-25T13:03:01.622Z,3.17
2017-08-25T13:05:29.059Z,3.40
2017-08-25T13:07:56.500Z,3.93
2017-08-25T13:10:23.924Z,3.60
2017-08-25T13:12:51.363Z,3.63
2017-08-25T13:15:18.884Z,4.27
2017-08-25T13:17:47.108Z,3.37
2017-08-25T13:20:14.535Z,3.93
2017-08-25T13:22:41.976Z,3.97
2017-08-25T13:25:09.401Z,3.33
2017-08-25T13:27:36.909Z,2.93
2017-08-25T13:30:05.114Z,4.43
2017-08-25T13:32:32.617Z,3.70
2017-08-25T13:35:00.865Z,4.03
2017-08-25T13:37:28.285Z,3.33
2017-08-25T13:39:55.725Z,3.40
2017-08-25T13:42:23.152Z,3.70
2017-08-25T13:44:50.597Z,4.50
2017-08-25T13:47:18.036Z,3.33
2017-08-25T13:49:45.463Z,3.43
2017-08-25T13:52:14.077Z,4.60
2017-08-25T13:54:41.538Z,3.83
2017-08-25T13:57:08.960Z,4.20
2017-08-25T13:59:36.514Z,3.87
2017-08-25T14:02:03.995Z,4.97
2017-08-25T14:04:31.444Z,3.90
2017-08-25T14:06:58.876Z,3.80
2017-08-25T14:09:26.342Z,4.13
2017-08-25T14:11:53.788Z,4.70
2017-08-25T14:14:21.283Z,4.43
2017-08-25T14:16:48.704Z,4.17
2017-08-25T14:19:16.160Z,4.40
2017-08-25T14:21:43.602Z,4.43
2017-08-25T14:24:11.033Z,3.57
2017-08-25T14:26:39.256Z,3.90
2017-08-25T14:29:06.712Z,4.40
2017-08-25T14:31:34.140Z,4.10
2017-08-25T14:34:01.574Z,3.93
2017-08-25T14:36:29.012Z,4.10
2017-08-25T14:38:56.436Z,3.83
2017-08-25T14:41:23.898Z,3.63
2017-08-25T14:43:51.328Z,3.80
2017-08-25T14:46:18.757Z,4.00
2017-08-25T14:48:46.216Z,4.47
2017-08-25T14:51:13.632Z,3.97
2017-08-25T14:53:41.072Z,3.80
2017-08-25T14:56:08.508Z,4.17
2017-08-25T14:58:35.940Z,4.27
2017-08-25T15:01:03.364Z,4.10
2017-08-25T15:03:30.807Z,3.70
2017-08-25T15:05:58.223Z,3.63
2017-08-25T15:08:25.666Z,3.53
2017-08-25T15:10:53.096Z,3.43
2017-08-25T15:13:20.539Z,3.80
2017-08-25T15:15:47.959Z,4.00
2017-08-25T15:18:15.396Z,4.90
2017-08-25T15:20:42.821Z,3.50
2017-08-25T15:23:10.254Z,3.80
2017-08-25T15:25:37.675Z,4.07
2017-08-25T15:28:05.113Z,3.97
2017-08-25T15:30:32.545Z,4.40
2017-08-25T15:32:59.983Z,4.00
2017-08-25T15:35:27.441Z,3.90
2017-08-25T15:37:54.868Z,5.50
2017-08-25T15:40:22.287Z,4.27
2017-08-25T15:42:49.716Z,4.67
2017-08-25T15:45:17.149Z,4.10
2017-08-25T15:47:44.582Z,3.70
2017-08-25T15:50:12.004Z,4.10
2017-08-25T15:52:39.433Z,4.60
2017-08-25T15:55:06.860Z,4.60
2017-08-25T15:57:34.297Z,4.17
2017-08-25T16:00:09.040Z,4.17
2017-08-25T16:02:36.480Z,4.20
2017-08-25T16:05:03.904Z,4.27
2017-08-25T16:07:31.335Z,4.00
2017-08-25T16:09:58.765Z,5.03
2017-08-25T16:12:26.192Z,4.63
2017-08-25T16:14:53.616Z,4.17
2017-08-25T16:17:21.050Z,4.33
2017-08-25T16:19:48.490Z,5.80
2017-08-25T16:22:15.937Z,5.07
2017-08-25T16:24:43.377Z,4.40
2017-08-25T16:27:10.805Z,5.30
2017-08-25T16:29:38.245Z,4.53
2017-08-25T16:32:05.668Z,4.73
2017-08-25T16:34:33.092Z,5.67
2017-08-25T16:37:00.519Z,4.90
2017-08-25T16:39:27.960Z,6.67
2017-08-25T16:41:55.428Z,6.20
2017-08-25T16:44:22.853Z,7.30
2017-08-25T16:46:50.283Z,7.80
2017-08-25T16:49:17.761Z,7.43
2017-08-25T16:51:45.196Z,8.77
2017-08-25T16:54:12.629Z,8.87
2017-08-25T16:56:40.065Z,7.80
2017-08-25T16:59:07.488Z,8.83
2017-08-25T17:01:34.921Z,8.80
2017-08-25T17:04:02.348Z,9.17
2017-08-25T17:06:29.776Z,9.27
2017-08-25T17:08:57.214Z,9.03
2017-08-25T17:11:24.640Z,9.30
2017-08-25T17:13:52.068Z,7.93
2017-08-25T17:16:19.509Z,9.30
2017-08-25T17:18:46.950Z,9.63
2017-08-25T17:21:14.387Z,9.90
2017-08-25T17:23:41.808Z,9.10
2017-08-25T17:26:09.249Z,9.27
2017-08-25T17:28:36.681Z,10.13
2017-08-25T17:31:04.136Z,9.60
2017-08-25T17:33:31.575Z,10.10
2017-08-25T17:35:59.016Z,10.13
2017-08-25T17:38:26.443Z,9.60
2017-08-25T17:40:53.871Z,11.73
2017-08-25T17:43:21.319Z,10.87
2017-08-25T17:45:48.752Z,11.33
2017-08-25T17:48:16.188Z,10.60
2017-08-25T17:50:43.619Z,10.27
2017-08-25T17:53:11.063Z,12.00
2017-08-25T17:55:38.491Z,12.67
2017-08-25T17:58:05.936Z,11.80
2017-08-25T18:00:33.369Z,11.03
2017-08-25T18:03:00.804Z,13.20
2017-08-25T18:05:28.236Z,12.43
2017-08-25T18:07:55.677Z,13.80
2017-08-25T18:10:23.128Z,11.47
2017-08-25T18:12:50.565Z,12.60
2017-08-25T18:15:18.021Z,11.73
2017-08-25T18:17:45.440Z,13.10
2017-08-25T18:20:12.868Z,11.27
2017-08-25T18:22:40.308Z,11.93
2017-08-25T18:25:07.745Z,11.57
2017-08-25T18:27:35.178Z,11.47
2017-08-25T18:30:02.613Z,12.70
2017-08-25T18:32:30.089Z,11.43
2017-08-25T18:34:57.525Z,11.23
2017-08-25T18:37:24.975Z,12.80
2017-08-25T18:39:52.408Z,10.70
2017-08-25T18:42:19.846Z,11.53
2017-08-25T18:44:47.292Z,11.43
2017-08-25T18:47:14.716Z,11.70
2017-08-25T18:49:42.166Z,12.40
2017-08-25T18:52:09.597Z,10.40
2017-08-25T18:54:37.032Z,11.13
2017-08-25T18:57:04.465Z,10.93
2017-08-25T18:59:31.905Z,10.93
2017-08-25T19:01:59.328Z,11.33
2017-08-25T19:04:26.776Z,12.57
2017-08-25T19:06:54.203Z,10.80
2017-08-25T19:09:21.642Z,10.50
2017-08-25T19:11:49.074Z,10.47
2017-08-25T19:14:16.514Z,11.27
2017-08-25T19:16:44.924Z,11.10
2017-08-25T19:19:12.361Z,11.83
2017-08-25T19:21:39.795Z,11.93
2017-08-25T19:24:07.241Z,12.67
2017-08-25T19:26:34.667Z,13.10
2017-08-25T19:29:02.109Z,12.07
2017-08-25T19:31:29.549Z,13.20
2017-08-25T19:33:56.983Z,13.20
2017-08-25T19:36:24.419Z,13.57
2017-08-25T19:38:51.864Z,12.27
2017-08-25T19:41:19.307Z,13.40
2017-08-25T19:43:46.745Z,13.13
2017-08-25T19:46:14.194Z,13.33
2017-08-25T19:48:41.620Z,14.80
2017-08-25T19:51:09.057Z,13.27
2017-08-25T19:53:36.512Z,14.50
2017-08-25T19:56:04.976Z,13.07
2017-08-25T19:58:32.448Z,10.93
2017-08-25T20:00:59.892Z,12.83
2017-08-25T20:03:27.330Z,13.63
2017-08-25T20:05:54.763Z,14.40
2017-08-25T20:08:22.196Z,12.90
2017-08-25T20:10:49.656Z,12.93
2017-08-25T20:13:17.089Z,12.70
2017-08-25T20:15:44.548Z,12.43
2017-08-25T20:18:11.986Z,11.97
2017-08-25T20:20:39.488Z,13.00
2017-08-25T20:23:06.941Z,12.27
2017-08-25T20:25:34.381Z,12.03
2017-08-25T20:28:01.818Z,12.77
2017-08-25T20:30:29.270Z,12.60
2017-08-25T20:32:56.725Z,11.17
2017-08-25T20:35:24.168Z,12.60
2017-08-25T20:37:51.604Z,11.80
2017-08-25T20:40:19.041Z,13.67
2017-08-25T20:42:46.498Z,14.23
2017-08-25T20:45:13.933Z,12.40
2017-08-25T20:47:41.372Z,13.13
2017-08-25T20:50:08.796Z,10.87
2017-08-25T20:52:36.236Z,11.73
2017-08-25T20:55:03.672Z,11.57
2017-08-25T20:57:31.108Z,12.60
2017-08-25T20:59:58.556Z,12.20
2017-08-25T21:02:26.001Z,11.73
2017-08-25T21:04:53.425Z,12.50
2017-08-25T21:07:20.855Z,11.63
2017-08-25T21:09:48.288Z,11.17
2017-08-25T21:12:15.748Z,13.73
2017-08-25T21:14:43.181Z,11.03
2017-08-25T21:17:10.616Z,11.60
2017-08-25T21:19:38.044Z,12.03
2017-08-25T21:22:05.476Z,12.00
2017-08-25T21:24:32.918Z,11.57
2017-08-25T21:27:00.355Z,11.80
2017-08-25T21:29:27.793Z,12.57
2017-08-25T21:31:55.224Z,10.90
2017-08-25T21:34:22.659Z,11.63
2017-08-25T21:36:50.088Z,12.70
2017-08-25T21:39:17.538Z,12.37
2017-08-25T21:41:44.959Z,13.87
2017-08-25T21:44:12.424Z,13.83
2017-08-25T21:46:39.845Z,11.60
2017-08-25T21:49:07.284Z,12.60
2017-08-25T21:51:34.720Z,13.03
2017-08-25T21:54:02.155Z,13.10
2017-08-25T21:56:29.592Z,10.90
2017-08-25T21:58:57.039Z,13.00
2017-08-25T22:01:24.465Z,12.20
2017-08-25T22:03:51.905Z,12.47
2017-08-25T22:06:19.340Z,12.30
2017-08-25T22:08:46.780Z,12.47
2017-08-25T22:11:14.216Z,11.37
2017-08-25T22:13:41.652Z,12.43
2017-08-25T22:16:09.192Z,11.70
2017-08-25T22:18:36.632Z,13.27
2017-08-25T22:21:04.073Z,13.50
2017-08-25T22:23:31.519Z,13.40
2017-08-25T22:25:58.957Z,15.03
2017-08-25T22:28:26.393Z,17.17
2017-08-25T22:30:53.831Z,16.00
2017-08-25T22:33:21.255Z,17.07
2017-08-25T22:35:48.697Z,18.53
2017-08-25T22:38:16.157Z,20.03
2017-08-25T22:40:43.567Z,20.23
2017-08-25T22:43:10.999Z,19.47
2017-08-25T22:45:38.456Z,21.90
2017-08-25T22:48:05.890Z,21.43
2017-08-25T22:50:33.320Z,24.80
2017-08-25T22:53:00.750Z,25.60
2017-08-25T22:55:28.190Z,23.60
2017-08-25T22:57:55.616Z,26.33
2017-08-25T23:00:23.061Z,21.57
2017-08-25T23:02:50.500Z,19.73
2017-08-25T23:05:18.011Z,19.87
2017-08-25T23:07:45.433Z,21.30
2017-08-25T23:10:12.885Z,23.57
2017-08-25T23:12:40.300Z,24.17
2017-08-25T23:15:07.741Z,24.93
2017-08-25T23:17:35.182Z,32.97
2017-08-25T23:20:02.611Z,29.50
2017-08-25T23:22:30.127Z,27.10
2017-08-25T23:24:57.556Z,30.90
2017-08-25T23:27:24.996Z,29.70
2017-08-25T23:29:52.424Z,30.87
2017-08-25T23:32:19.856Z,32.17
2017-08-25T23:34:47.285Z,32.43
2017-08-25T23:37:14.730Z,32.40
2017-08-25T23:39:42.160Z,37.60
2017-08-25T23:42:09.595Z,35.67
2017-08-25T23:44:37.029Z,33.00
2017-08-25T23:47:04.460Z,36.03
2017-08-25T23:49:31.895Z,34.63
2017-08-25T23:51:59.338Z,34.13
2017-08-25T23:54:26.765Z,29.57
2017-08-25T23:56:57.406Z,29.07
2017-08-25T23:59:24.846Z,31.97
